createdAt,value
2023-05-21T00:02:24.045Z,16.00
2023-05-21T00:04:51.568Z,16.10
2023-05-21T00:07:19.181Z,16.00
2023-05-21T00:09:46.759Z,15.80
2023-05-21T00:12:14.336Z,15.70
2023-05-21T00:14:41.949Z,15.60
2023-05-21T00:17:09.530Z,15.50
2023-05-21T00:19:37.136Z,15.50
2023-05-21T00:22:04.750Z,15.40
2023-05-21T00:24:32.344Z,15.30
2023-05-21T00:26:59.918Z,15.50
2023-05-21T00:29:27.558Z,15.50
2023-05-21T00:31:55.158Z,15.40
2023-05-21T00:34:22.712Z,15.40
2023-05-21T00:36:51.120Z,15.30
2023-05-21T00:39:18.692Z,15.30
2023-05-21T00:41:46.266Z,15.20
2023-05-21T00:44:13.890Z,15.20
2023-05-21T00:46:42.231Z,15.20
2023-05-21T00:49:09.805Z,15.10
2023-05-21T00:51:38.197Z,15.30
2023-05-21T00:54:06.562Z,15.30
2023-05-21T00:56:34.132Z,15.30
2023-05-21T00:59:02.537Z,15.40
2023-05-21T01:01:30.162Z,15.40
2023-05-21T01:03:57.735Z,15.40
2023-05-21T01:06:25.321Z,15.30
2023-05-21T01:08:52.899Z,15.20
2023-05-21T01:11:20.477Z,15.20
2023-05-21T01:13:48.094Z,15.10
2023-05-21T01:16:15.691Z,15.10
2023-05-21T01:18:43.277Z,15.30
2023-05-21T01:21:10.856Z,15.30
2023-05-21T01:23:38.441Z,15.20
2023-05-21T01:26:06.015Z,15.10
2023-05-21T01:28:33.626Z,15.10
2023-05-21T01:31:02.001Z,15.00
2023-05-21T01:33:44.458Z,15.00
2023-05-21T01:36:26.544Z,15.00
2023-05-21T01:39:18.265Z,15.00
2023-05-21T01:41:45.831Z,14.90
2023-05-21T01:44:13.446Z,14.90
2023-05-21T01:46:41.171Z,14.90
2023-05-21T01:49:08.618Z,14.90
2023-05-21T01:51:36.225Z,14.90
2023-05-21T01:54:03.818Z,14.90
2023-05-21T01:56:31.406Z,14.80
2023-05-21T01:58:58.995Z,15.00
2023-05-21T02:01:26.618Z,15.00
2023-05-21T02:03:54.334Z,15.00
2023-05-21T02:06:21.792Z,15.20
2023-05-21T02:08:50.213Z,15.10
2023-05-21T02:11:17.796Z,15.10
2023-05-21T02:13:45.366Z,15.10
2023-05-21T02:16:13.102Z,15.10
2023-05-21T02:18:40.651Z,15.00
2023-05-21T02:21:08.962Z,15.20
2023-05-21T02:23:36.664Z,15.20
2023-05-21T02:26:05.026Z,15.20
2023-05-21T02:28:32.608Z,15.20
2023-05-21T02:31:00.991Z,15.10
2023-05-21T02:33:28.586Z,15.00
2023-05-21T02:35:56.181Z,15.00
2023-05-21T02:38:23.791Z,14.90
2023-05-21T02:40:51.389Z,14.90
2023-05-21T02:43:18.990Z,14.80
2023-05-21T02:45:47.484Z,15.00
2023-05-21T02:48:14.995Z,15.00
2023-05-21T02:50:42.600Z,14.90
2023-05-21T02:53:10.988Z,14.90
2023-05-21T02:55:38.706Z,14.80
2023-05-21T02:58:06.169Z,14.90
2023-05-21T03:00:33.780Z,14.80
2023-05-21T03:03:01.511Z,14.80
2023-05-21T03:05:28.954Z,14.80
2023-05-21T03:07:56.571Z,14.80
2023-05-21T03:10:24.168Z,14.80
2023-05-21T03:12:51.746Z,14.80
2023-05-21T03:15:20.127Z,14.80
2023-05-21T03:17:47.772Z,14.80
2023-05-21T03:20:15.325Z,14.80
2023-05-21T03:22:45.994Z,14.70
2023-05-21T03:25:13.555Z,14.70
2023-05-21T03:27:41.177Z,14.70
2023-05-21T03:30:08.875Z,14.70
2023-05-21T03:32:36.597Z,14.60
2023-05-21T03:35:04.062Z,14.60
2023-05-21T03:37:32.465Z,14.70
2023-05-21T03:40:00.058Z,14.60
2023-05-21T03:42:27.623Z,14.60
2023-05-21T03:44:55.288Z,14.60
2023-05-21T03:47:22.904Z,14.60
2023-05-21T03:49:50.469Z,14.60
2023-05-21T03:52:18.134Z,14.60
2023-05-21T03:54:45.708Z,14.80
2023-05-21T03:57:13.315Z,14.80
2023-05-21T03:59:40.963Z,14.80
2023-05-21T04:02:08.640Z,14.80
2023-05-21T04:04:36.199Z,15.00
2023-05-21T04:07:03.778Z,15.20
2023-05-21T04:09:32.226Z,15.10
2023-05-21T04:11:59.790Z,15.10
2023-05-21T04:14:27.431Z,15.00
2023-05-21T04:16:55.021Z,15.00
2023-05-21T04:19:22.705Z,15.20
2023-05-21T04:21:50.273Z,15.10
2023-05-21T04:24:17.852Z,15.20
2023-05-21T04:26:45.451Z,15.20
2023-05-21T04:29:13.091Z,15.00
2023-05-21T04:31:40.676Z,14.90
2023-05-21T04:34:08.256Z,15.10
2023-05-21T04:36:36.649Z,15.00
2023-05-21T04:39:05.006Z,14.90
2023-05-21T04:41:32.618Z,14.90
2023-05-21T04:44:00.310Z,14.90
2023-05-21T04:46:27.938Z,14.80
2023-05-21T04:48:56.246Z,14.70
2023-05-21T04:51:24.009Z,14.70
2023-05-21T04:53:51.580Z,14.70
2023-05-21T04:56:19.935Z,14.70
2023-05-21T04:58:47.558Z,14.70
2023-05-21T05:01:15.174Z,14.70
2023-05-21T05:03:42.782Z,15.00
2023-05-21T05:06:10.389Z,15.20
2023-05-21T05:08:37.977Z,15.20
2023-05-21T05:11:06.328Z,15.30
2023-05-21T05:13:34.099Z,15.30
2023-05-21T05:16:01.691Z,15.30
2023-05-21T05:18:30.035Z,15.40
2023-05-21T05:20:57.696Z,15.40
2023-05-21T05:23:25.268Z,15.40
2023-05-21T05:25:53.604Z,15.30
2023-05-21T05:28:21.225Z,15.30
2023-05-21T05:30:48.874Z,15.30
2023-05-21T05:33:16.423Z,15.30
2023-05-21T05:35:44.082Z,15.40
2023-05-21T05:38:11.648Z,15.40
2023-05-21T05:40:40.028Z,15.90
2023-05-21T05:43:08.412Z,15.90
2023-05-21T05:45:36.916Z,15.90
2023-05-21T05:48:04.432Z,15.90
2023-05-21T05:50:32.731Z,15.80
2023-05-21T05:53:00.347Z,15.80
2023-05-21T05:55:27.928Z,15.80
2023-05-21T05:57:55.555Z,15.80
2023-05-21T06:00:23.162Z,15.80
2023-05-21T06:02:50.814Z,15.90
2023-05-21T06:05:19.198Z,16.00
2023-05-21T06:07:46.770Z,15.90
2023-05-21T06:10:15.116Z,16.30
2023-05-21T06:12:42.758Z,16.30
2023-05-21T06:15:10.355Z,16.40
2023-05-21T06:17:37.982Z,16.60
2023-05-21T06:20:05.700Z,16.60
2023-05-21T06:22:33.302Z,16.60
2023-05-21T06:25:00.885Z,16.70
2023-05-21T06:27:28.656Z,16.70
2023-05-21T06:29:56.241Z,16.70
2023-05-21T06:32:24.623Z,16.80
2023-05-21T06:34:52.224Z,16.80
2023-05-21T06:37:19.802Z,16.90
2023-05-21T06:39:47.397Z,17.20
2023-05-21T06:42:15.824Z,17.50
2023-05-21T06:44:43.419Z,17.50
2023-05-21T06:47:10.992Z,17.60
2023-05-21T06:49:39.394Z,18.00
2023-05-21T06:52:06.979Z,18.00
2023-05-21T06:54:34.581Z,18.00
2023-05-21T06:57:02.205Z,17.90
2023-05-21T06:59:29.827Z,17.90
2023-05-21T07:01:57.392Z,17.90
2023-05-21T07:04:25.043Z,18.00
2023-05-21T07:06:53.387Z,18.20
2023-05-21T07:09:20.970Z,18.10
2023-05-21T07:11:49.390Z,18.50
2023-05-21T07:14:16.985Z,18.50
2023-05-21T07:16:44.631Z,18.60
2023-05-21T07:19:13.028Z,18.90
2023-05-21T07:21:40.595Z,18.90
2023-05-21T07:24:08.177Z,19.00
2023-05-21T07:26:36.621Z,19.10
2023-05-21T07:29:04.205Z,19.10
2023-05-21T07:31:32.609Z,19.50
2023-05-21T07:34:00.180Z,19.40
2023-05-21T07:36:27.761Z,19.50
2023-05-21T07:38:55.344Z,19.50
2023-05-21T07:41:22.980Z,19.50
2023-05-21T07:43:50.584Z,19.40
2023-05-21T07:46:18.953Z,19.40
2023-05-21T07:48:46.608Z,19.30
2023-05-21T07:51:14.159Z,19.30
2023-05-21T07:53:41.749Z,19.60
2023-05-21T07:56:10.137Z,19.70
2023-05-21T07:58:37.711Z,19.60
2023-05-21T08:01:05.310Z,19.70
2023-05-21T08:03:33.056Z,19.70
2023-05-21T08:06:00.513Z,19.80
2023-05-21T08:08:28.104Z,19.80
2023-05-21T08:10:55.719Z,19.90
2023-05-21T08:13:23.329Z,20.20
2023-05-21T08:15:52.814Z,20.40
2023-05-21T08:18:19.330Z,20.60
2023-05-21T08:20:46.903Z,20.60
2023-05-21T08:23:14.500Z,20.70
2023-05-21T08:25:42.922Z,20.70
2023-05-21T08:28:11.227Z,20.80
2023-05-21T08:30:38.829Z,20.80
2023-05-21T08:33:06.545Z,20.90
2023-05-21T08:35:34.914Z,21.10
2023-05-21T08:38:02.422Z,21.10
2023-05-21T08:40:30.820Z,21.50
2023-05-21T08:42:58.402Z,21.50
2023-05-21T08:45:26.022Z,21.60
2023-05-21T08:47:59.719Z,21.70
2023-05-21T08:50:27.279Z,21.70
2023-05-21T08:52:54.846Z,21.70
2023-05-21T08:55:25.261Z,21.70
2023-05-21T08:57:53.659Z,21.90
2023-05-21T09:00:21.209Z,21.90
2023-05-21T09:02:49.598Z,21.90
2023-05-21T09:05:17.937Z,21.90
2023-05-21T09:07:52.473Z,21.90
2023-05-21T09:10:19.543Z,22.20
2023-05-21T09:12:47.032Z,22.20
2023-05-21T09:15:14.627Z,22.50
2023-05-21T09:17:42.318Z,22.50
2023-05-21T09:20:13.030Z,22.40
2023-05-21T09:22:41.387Z,22.50
2023-05-21T09:25:09.203Z,22.50
2023-05-21T09:27:36.828Z,22.40
2023-05-21T09:30:04.384Z,22.30
2023-05-21T09:32:32.041Z,22.40
2023-05-21T09:34:59.599Z,22.40
2023-05-21T09:37:27.878Z,22.40
2023-05-21T09:39:55.595Z,22.70
2023-05-21T09:42:23.155Z,22.70
2023-05-21T09:44:50.744Z,22.70
2023-05-21T09:47:18.375Z,22.70
2023-05-21T09:49:45.959Z,22.70
2023-05-21T09:52:13.534Z,22.70
2023-05-21T09:54:41.168Z,22.70
2023-05-21T09:57:08.760Z,22.80
2023-05-21T09:59:36.367Z,22.80
2023-05-21T10:02:04.079Z,22.80
2023-05-21T10:04:31.622Z,22.80
2023-05-21T10:06:59.194Z,22.90
2023-05-21T10:09:26.807Z,23.10
2023-05-21T10:11:54.378Z,23.20
2023-05-21T10:14:21.957Z,23.50
2023-05-21T10:16:49.693Z,23.60
2023-05-21T10:19:17.313Z,23.60
2023-05-21T10:21:44.882Z,23.60
2023-05-21T10:24:12.495Z,23.60
2023-05-21T10:26:40.060Z,23.60
2023-05-21T10:29:07.638Z,23.70
2023-05-21T10:31:35.254Z,23.60
2023-05-21T10:34:02.848Z,23.60
2023-05-21T10:36:30.421Z,23.70
2023-05-21T10:38:58.085Z,23.70
2023-05-21T10:41:25.691Z,23.70
2023-05-21T10:43:53.256Z,23.80
2023-05-21T10:46:39.502Z,23.90
2023-05-21T10:49:25.509Z,24.00
2023-05-21T10:51:56.927Z,24.40
2023-05-21T10:54:36.365Z,24.30
2023-05-21T10:57:25.139Z,24.40
2023-05-21T10:59:52.723Z,24.70
2023-05-21T11:02:21.122Z,24.90
2023-05-21T11:04:48.861Z,24.80
2023-05-21T11:07:17.189Z,24.90
2023-05-21T11:09:44.759Z,25.00
2023-05-21T11:12:12.403Z,24.90
2023-05-21T11:14:40.178Z,24.90
2023-05-21T11:17:10.614Z,24.80
2023-05-21T11:19:44.047Z,24.80
2023-05-21T11:22:11.466Z,24.80
2023-05-21T11:24:39.051Z,25.00
2023-05-21T11:27:07.430Z,25.40
2023-05-21T11:29:44.908Z,25.40
2023-05-21T11:32:12.554Z,25.30
2023-05-21T11:34:40.137Z,25.30
2023-05-21T11:37:25.586Z,25.30
2023-05-21T11:39:53.147Z,25.40
2023-05-21T11:42:29.641Z,25.30
2023-05-21T11:44:57.269Z,25.40
2023-05-21T11:47:24.867Z,25.60
2023-05-21T11:49:52.432Z,25.70
2023-05-21T11:52:20.860Z,25.80
2023-05-21T11:54:51.515Z,25.70
2023-05-21T11:57:19.131Z,25.70
2023-05-21T11:59:46.738Z,25.70
2023-05-21T12:02:17.269Z,25.70
2023-05-21T12:04:44.813Z,25.70
2023-05-21T12:07:12.432Z,25.70
2023-05-21T12:09:42.925Z,25.70
2023-05-21T12:12:10.515Z,25.70
2023-05-21T12:14:38.896Z,26.10
2023-05-21T12:17:06.480Z,26.00
2023-05-21T12:19:36.949Z,26.10
2023-05-21T12:22:04.629Z,26.20
2023-05-21T12:24:32.996Z,26.50
2023-05-21T12:27:00.580Z,26.50
2023-05-21T12:29:28.971Z,26.60
2023-05-21T12:31:59.859Z,26.60
2023-05-21T12:34:45.483Z,26.60
2023-05-21T12:37:16.384Z,26.80
2023-05-21T12:39:46.660Z,26.80
2023-05-21T12:42:14.289Z,26.90
2023-05-21T12:44:45.289Z,27.20
2023-05-21T12:47:12.875Z,27.20
2023-05-21T12:49:40.508Z,27.20
2023-05-21T12:52:13.835Z,27.10
2023-05-21T12:54:41.425Z,27.30
2023-05-21T12:57:11.786Z,27.40
2023-05-21T12:59:57.191Z,27.40
2023-05-21T13:02:27.512Z,27.40
2023-05-21T13:04:55.040Z,27.50
2023-05-21T13:07:22.620Z,27.50
2023-05-21T13:09:50.225Z,27.60
2023-05-21T13:12:17.800Z,27.70
2023-05-21T13:14:45.428Z,27.70
2023-05-21T13:17:13.003Z,27.80
2023-05-21T13:19:41.339Z,27.90
2023-05-21T13:22:08.915Z,27.90
2023-05-21T13:24:37.320Z,28.00
2023-05-21T13:27:04.869Z,27.90
2023-05-21T13:29:33.221Z,27.80
2023-05-21T13:32:00.835Z,27.80
2023-05-21T13:34:28.413Z,27.80
2023-05-21T13:36:56.028Z,27.80
2023-05-21T13:39:23.597Z,27.90
2023-05-21T13:41:51.168Z,28.00
2023-05-21T13:44:18.746Z,28.10
2023-05-21T13:46:46.393Z,28.20
2023-05-21T13:49:14.721Z,28.30
2023-05-21T13:51:42.288Z,28.30
2023-05-21T13:54:09.910Z,28.40
2023-05-21T13:56:37.587Z,28.50
2023-05-21T13:59:05.068Z,28.60
2023-05-21T14:01:32.804Z,28.70
2023-05-21T14:04:00.278Z,28.90
2023-05-21T14:06:27.847Z,29.00
2023-05-21T14:08:56.241Z,29.10
2023-05-21T14:11:24.572Z,29.20
2023-05-21T14:13:52.166Z,29.20
2023-05-21T14:16:19.822Z,29.20
2023-05-21T14:18:47.395Z,29.20
2023-05-21T14:21:14.960Z,29.30
2023-05-21T14:23:43.349Z,29.60
2023-05-21T14:26:10.938Z,29.60
2023-05-21T14:28:38.517Z,29.70
2023-05-21T14:31:06.128Z,30.00
2023-05-21T14:33:33.701Z,30.20
2023-05-21T14:36:01.285Z,30.30
2023-05-21T14:38:28.938Z,30.30
2023-05-21T14:40:56.482Z,30.20
2023-05-21T14:43:24.074Z,30.10
2023-05-21T14:45:51.693Z,30.20
2023-05-21T14:48:19.253Z,30.10
2023-05-21T14:50:46.816Z,30.00
2023-05-21T14:53:14.497Z,29.90
2023-05-21T14:55:42.979Z,29.70
2023-05-21T14:58:10.354Z,29.70
2023-05-21T15:00:37.978Z,29.70
2023-05-21T15:03:05.633Z,29.60
2023-05-21T15:05:33.199Z,29.60
2023-05-21T15:08:01.557Z,29.40
2023-05-21T15:10:29.910Z,29.40
2023-05-21T15:12:57.475Z,29.40
2023-05-21T15:15:25.943Z,29.50
2023-05-21T15:17:53.557Z,29.50
2023-05-21T15:20:21.916Z,29.50
2023-05-21T15:22:48.820Z,29.60
2023-05-21T15:25:16.412Z,29.60
2023-05-21T15:27:44.842Z,29.50
2023-05-21T15:30:12.500Z,29.50
2023-05-21T15:32:40.097Z,29.40
2023-05-21T15:35:07.724Z,29.40
2023-05-21T15:37:36.052Z,29.00
2023-05-21T15:40:03.619Z,29.00
2023-05-21T15:42:31.241Z,28.90
2023-05-21T15:44:58.863Z,28.90
2023-05-21T15:47:26.549Z,28.90
2023-05-21T15:49:54.031Z,28.90
2023-05-21T15:52:21.652Z,28.90
2023-05-21T15:54:49.227Z,28.90
2023-05-21T15:57:16.825Z,29.00
2023-05-21T15:59:45.430Z,29.00
2023-05-21T16:02:12.986Z,28.90
2023-05-21T16:04:40.569Z,28.90
2023-05-21T16:07:08.188Z,28.80
2023-05-21T16:09:36.524Z,28.60
2023-05-21T16:12:04.120Z,28.60
2023-05-21T16:14:31.767Z,28.50
2023-05-21T16:16:59.336Z,28.60
2023-05-21T16:19:26.954Z,28.60
2023-05-21T16:21:54.726Z,28.50
2023-05-21T16:24:25.241Z,28.30
2023-05-21T16:26:53.232Z,28.10
2023-05-21T16:29:22.048Z,27.90
2023-05-21T16:31:49.451Z,27.80
2023-05-21T16:34:17.034Z,27.90
2023-05-21T16:36:44.598Z,27.70
2023-05-21T16:39:12.193Z,27.60
2023-05-21T16:41:40.545Z,27.50
2023-05-21T16:44:08.171Z,27.40
2023-05-21T16:46:35.843Z,27.40
2023-05-21T16:49:03.337Z,27.40
2023-05-21T16:51:30.953Z,27.30
2023-05-21T16:53:58.535Z,27.10
2023-05-21T16:56:26.128Z,27.00
2023-05-21T16:58:54.539Z,27.00
2023-05-21T17:01:22.172Z,26.90
2023-05-21T17:03:49.873Z,26.80
2023-05-21T17:06:18.117Z,26.70
2023-05-21T17:08:45.691Z,26.60
2023-05-21T17:11:13.271Z,26.60
2023-05-21T17:13:40.897Z,26.50
2023-05-21T17:16:09.286Z,26.40
2023-05-21T17:18:37.620Z,26.30
2023-05-21T17:21:05.249Z,26.30
2023-05-21T17:23:32.864Z,26.20
2023-05-21T17:26:01.229Z,26.10
2023-05-21T17:28:28.831Z,26.10
2023-05-21T17:30:56.405Z,26.10
2023-05-21T17:33:24.013Z,26.20
2023-05-21T17:35:51.642Z,26.10
2023-05-21T17:38:19.217Z,26.10
2023-05-21T17:40:46.794Z,26.00
2023-05-21T17:43:15.374Z,25.90
2023-05-21T17:45:42.960Z,26.10
2023-05-21T17:48:10.568Z,26.00
2023-05-21T17:50:38.321Z,25.90
2023-05-21T17:53:05.930Z,25.80
2023-05-21T17:55:34.359Z,25.70
2023-05-21T17:58:01.927Z,25.70
2023-05-21T18:00:29.495Z,25.60
2023-05-21T18:02:57.160Z,25.70
2023-05-21T18:05:24.686Z,25.70
2023-05-21T18:07:52.261Z,25.50
2023-05-21T18:10:19.834Z,25.50
2023-05-21T18:12:47.459Z,25.40
2023-05-21T18:15:15.055Z,25.50
2023-05-21T18:17:42.717Z,25.40
2023-05-21T18:20:10.318Z,25.30
2023-05-21T18:22:37.904Z,25.20
2023-05-21T18:25:05.485Z,25.10
2023-05-21T18:27:33.137Z,25.00
2023-05-21T18:30:00.709Z,24.90
2023-05-21T18:32:28.388Z,24.80
2023-05-21T18:34:55.903Z,24.70
2023-05-21T18:37:23.592Z,24.90
2023-05-21T18:39:51.062Z,24.90
2023-05-21T18:42:18.937Z,24.90
2023-05-21T18:44:46.549Z,24.90
2023-05-21T18:47:14.874Z,24.50
2023-05-21T18:49:42.694Z,24.50
2023-05-21T18:52:10.266Z,24.40
2023-05-21T18:54:37.878Z,24.40
2023-05-21T18:57:06.325Z,24.10
2023-05-21T18:59:33.885Z,24.10
2023-05-21T19:02:01.561Z,23.90
2023-05-21T19:04:29.105Z,23.80
2023-05-21T19:06:56.705Z,23.60
2023-05-21T19:09:25.065Z,23.60
2023-05-21T19:11:52.666Z,23.60
2023-05-21T19:14:20.256Z,23.50
2023-05-21T19:16:47.825Z,23.50
2023-05-21T19:19:15.479Z,23.40
2023-05-21T19:21:43.063Z,23.20
2023-05-21T19:24:11.415Z,23.20
2023-05-21T19:26:39.102Z,23.20
2023-05-21T19:29:06.633Z,23.00
2023-05-21T19:31:34.226Z,23.10
2023-05-21T19:34:03.643Z,22.80
2023-05-21T19:36:40.843Z,22.80
2023-05-21T19:38:58.823Z,22.70
2023-05-21T19:41:26.451Z,22.60
2023-05-21T19:43:54.046Z,22.50
2023-05-21T19:46:21.802Z,22.40
2023-05-21T19:48:50.048Z,22.40
2023-05-21T19:51:17.640Z,22.40
2023-05-21T19:53:45.284Z,22.30
2023-05-21T19:56:12.901Z,22.10
2023-05-21T19:58:41.422Z,21.80
2023-05-21T20:01:09.764Z,21.70
2023-05-21T20:03:38.385Z,21.60
2023-05-21T20:06:05.968Z,21.60
2023-05-21T20:08:33.573Z,21.70
2023-05-21T20:11:02.020Z,21.50
2023-05-21T20:13:29.555Z,21.40
2023-05-21T20:15:57.148Z,21.30
2023-05-21T20:18:24.797Z,21.20
2023-05-21T20:20:52.386Z,21.30
2023-05-21T20:23:20.943Z,21.10
2023-05-21T20:25:48.564Z,21.10
2023-05-21T20:28:16.131Z,20.90
2023-05-21T20:30:52.847Z,21.10
2023-05-21T20:33:20.436Z,21.00
2023-05-21T20:35:48.030Z,20.80
2023-05-21T20:38:15.634Z,20.70
2023-05-21T20:40:44.049Z,20.50
2023-05-21T20:43:14.554Z,20.50
2023-05-21T20:45:43.249Z,20.40
2023-05-21T20:48:10.929Z,20.30
2023-05-21T20:50:39.033Z,20.30
2023-05-21T20:53:06.388Z,20.20
2023-05-21T20:55:34.053Z,20.20
2023-05-21T20:58:01.627Z,20.10
2023-05-21T21:00:29.998Z,19.90
2023-05-21T21:02:57.680Z,19.90
2023-05-21T21:05:25.226Z,19.90
2023-05-21T21:07:55.741Z,19.80
2023-05-21T21:10:21.233Z,19.70
2023-05-21T21:12:48.869Z,19.70
2023-05-21T21:15:16.682Z,19.90
2023-05-21T21:17:44.718Z,19.80
2023-05-21T21:20:12.412Z,19.70
2023-05-21T21:22:40.009Z,19.70
2023-05-21T21:25:07.676Z,19.60
2023-05-21T21:27:36.062Z,19.40
2023-05-21T21:30:03.648Z,19.40
2023-05-21T21:32:32.405Z,19.30
2023-05-21T21:35:00.343Z,19.50
2023-05-21T21:37:27.946Z,19.40
2023-05-21T21:39:55.568Z,19.30
2023-05-21T21:42:24.054Z,19.10
2023-05-21T21:44:52.411Z,19.10
2023-05-21T21:47:20.118Z,19.00
2023-05-21T21:49:47.717Z,19.00
2023-05-21T21:52:15.309Z,19.20
2023-05-21T21:54:43.717Z,19.20
2023-05-21T21:57:12.049Z,19.20
2023-05-21T21:59:39.612Z,19.10
2023-05-21T22:02:08.005Z,19.00
2023-05-21T22:04:36.460Z,18.90
2023-05-21T22:07:03.970Z,18.80
2023-05-21T22:09:31.643Z,18.80
2023-05-21T22:11:59.946Z,18.70
2023-05-21T22:14:27.539Z,18.60
2023-05-21T22:16:56.022Z,18.40
2023-05-21T22:19:23.637Z,18.40
2023-05-21T22:21:51.939Z,18.50
2023-05-21T22:24:31.417Z,18.50
2023-05-21T22:26:47.164Z,18.50
2023-05-21T22:29:14.738Z,18.40
2023-05-21T22:31:43.216Z,18.50
2023-05-21T22:34:10.795Z,18.40
2023-05-21T22:36:39.144Z,18.50
2023-05-21T22:39:06.782Z,18.50
2023-05-21T22:41:34.363Z,18.50
2023-05-21T22:44:01.946Z,18.40
2023-05-21T22:46:29.598Z,18.20
2023-05-21T22:48:57.164Z,18.10
2023-05-21T22:51:25.533Z,18.30
2023-05-21T22:53:53.947Z,18.20
2023-05-21T22:56:21.534Z,18.20
2023-05-21T22:58:49.159Z,18.10
2023-05-21T23:01:16.826Z,18.00
2023-05-21T23:03:44.363Z,17.90
2023-05-21T23:06:12.721Z,17.80
2023-05-21T23:08:40.341Z,17.80
2023-05-21T23:11:07.940Z,17.70
2023-05-21T23:13:35.783Z,17.70
2023-05-21T23:16:03.455Z,17.60
2023-05-21T23:18:30.989Z,17.80
2023-05-21T23:20:58.621Z,17.80
2023-05-21T23:23:26.219Z,17.70
2023-05-21T23:25:53.820Z,17.70
2023-05-21T23:28:21.419Z,17.60
2023-05-21T23:30:49.045Z,17.50
2023-05-21T23:33:17.401Z,17.50
2023-05-21T23:35:44.991Z,17.40
2023-05-21T23:38:13.457Z,17.30
2023-05-21T23:40:41.149Z,17.30
2023-05-21T23:43:08.643Z,17.20
2023-05-21T23:45:36.304Z,17.20
2023-05-21T23:48:04.722Z,17.10
2023-05-21T23:50:32.261Z,17.10
2023-05-21T23:52:59.890Z,17.10
2023-05-21T23:55:27.741Z,17.00
2023-05-21T23:57:55.319Z,17.20
